Portada
METAR-TAF:

METAR-TAF

Aeroports :

Amman-Queen Alia, Jordània

latitud: 31-40N, longitud: 035-58E, altitud: 721 m

Observació

L'informe es va fer fa 24 minuts, a les 03:00 UTC
Vent 5 kt del Sud-Est
Temperatura 12°C
Humitat 88%
Pressió 1016 hPa
Visibilitat: 4000 m
Núvols disperses a una alçada de 3500 ft
Núvols disperses a una alçada de 8000 ft
boirina

METAR: OJAI 050300Z 13005KT 4000 BR SCT035 SCT080 12/10 Q1016 NOSIG

Hora: 05:24 (03:24 UTC)

Pronòstic

L'informe es va fer fa 4 hores i 24 minuts, a les 23:00 UTC
Pronòstic vàlid del 05 a les 00 UTC al 06 a les 06 UTC
Vent 10 kt del Est
Visibilitat: 3000 m
boirina
Temporalment
l' 05 a les 00 UTC al 05 a les 18 UTC
Vent 14 kt del Oest
Visibilitat: 0500 m
Escasses núvols a una alçada de 2000 ft, Cumulonimbus.
Núvols disperses a una alçada de 2000 ft
Cel ennuvolat a una alçada de 2500 ft
tempesta, pluja, boira

TAF: OJAI 042300Z 0500/0606 09010KT 3000 BR NSC TEMPO 0500/0518 28014KT 0500 TSRAFG FEW020CB SCT020 BKN025

Observacions i pronòstics meteorològics de més de 4000 aeroports (METAR i TAF).

Les estacions disponibles són els punts grocs i vermells al mapa.

Posi el ratolí al punt desitjat per veure el nom de l'estació.

Feu clic per veure les observacions i els pronòstics meteorològics.

Per canviar el mapa: feu clic els botons verds amb una creu de color negre per apropar; al botó verd amb un guió per allunyar la imatge; o en les fletxes verdes per a mapes adjacents.


METAR-TAF: